Estación Meteorológica Peña el Pijo (Robertgarden) [ 12/10/18 12:05:37 CET ]

Fecha Hora Presion(HPa) Temp (°C) Humedad % Rocio (°C) Viento ( m/s) Direccion Lluvia 1Hora(mm) Lluvia 24H(mm) LLuvia Total(mm)
2018-Aug-10 01:01:45 1012.700 16.0 54 6.7         275.05
2018-Aug-10 02:01:53 1012.800 14.9 56 6.2         275.05
2018-Aug-10 03:01:24 1012.700 13.9 59 6.0         275.05
2018-Aug-10 04:01:21 1012.500 13.8 58 5.7         275.05
2018-Aug-10 05:01:22 1013.000 12.3 63 5.4         275.05
2018-Aug-10 06:01:26 1013.300 12.3 64 5.7         275.05
2018-Aug-10 07:02:00 1013.800 11.8 67 5.8         275.05
2018-Aug-10 08:01:59 1014.200 12.5 68 6.8         275.05
2018-Aug-10 09:01:44 1014.600 16.5 61 9.0         275.05
2018-Aug-10 10:02:04 1014.700 19.5 62 12.0         275.05
2018-Aug-10 11:01:51 1014.900 25.6 55 15.9 0.3 S     275.05
2018-Aug-10 12:01:42 1015.000 28.3 45 15.2         275.05
2018-Aug-10 13:01:58 1015.100 29.9 44 16.3         275.05
2018-Aug-10 14:01:58 1014.600 30.9 41 16.2         275.05
2018-Aug-10 15:01:52 1014.700 31.0 38 15.0 0.6 WNW     275.05
2018-Aug-10 16:01:40 1014.200 30.6 42 16.2         275.05
2018-Aug-10 17:01:44 1013.600 30.5 40 15.4 0.6 SSW     275.05
2018-Aug-10 18:01:56 1013.900 28.1 47 15.7         275.05
2018-Aug-10 19:01:49 1015.700 17.2 70 11.7     10.87 10.87 285.93
2018-Aug-10 20:01:45 1016.100 16.6 81 13.3     1.03 11.91 286.97
2018-Aug-10 21:02:00 1014.700 17.4 84 14.7     0.51 12.43 287.49
2018-Aug-10 22:01:52 1016.200 17.3 85 14.8       12.43 287.49
2018-Aug-10 23:01:50 1017.000 16.9 85 14.3       12.43 287.49

Temperatura Máxima:31°    Temperatura Mínima:11°
Presión Máxima:1017.000 Hpa    Presión Mínima:1012.500 Hpa


Volver